Time;durP1;ratioP1;P1;durP2;ratioP2;P2;SDS_P1;SDS_P2;PMS_P1;PMS_P2;Temp;Humidity;BMP_temperature;BMP_pressure;BME280_temperature;BME280_humidity;BME280_pressure;Samples;Min_cycle;Max_cycle;Signal;HPM_P1;HPM_P2
2023/12/30 00:01:22;;;;;;;54.08;37.42;;;;;;;;;;10126253;28;20132;-79
2023/12/30 00:06:15;;;;;;;48.13;38.80;;;;;;;;;;10131605;28;20052;-79
2023/12/30 00:11:07;;;;;;;45.83;37.97;;;;;;;;;;10130416;28;20045;-79
2023/12/30 00:15:59;;;;;;;42.38;35.97;;;;;;;;;;10123433;28;20128;-80
2023/12/30 00:20:51;;;;;;;46.97;38.83;;;;;;;;;;10131969;28;20360;-80
2023/12/30 00:25:43;;;;;;;43.53;37.65;;;;;;;;;;10131326;28;20387;-79
2023/12/30 00:30:35;;;;;;;46.75;38.55;;;;;;;;;;10129497;28;20044;-80
2023/12/30 00:35:28;;;;;;;45.67;38.45;;;;;;;;;;10159854;28;20040;-80
2023/12/30 00:40:20;;;;;;;45.00;39.58;;;;;;;;;;10118061;28;20083;-80
2023/12/30 00:45:18;;;;;;;47.45;36.90;;;;;;;;;;10114941;28;20491;-79
2023/12/30 00:50:10;;;;;;;51.13;39.00;;;;;;;;;;10140568;28;20051;-80
2023/12/30 00:55:02;;;;;;;48.13;38.53;;;;;;;;;;10132040;28;20040;-80
2023/12/30 00:59:54;;;;;;;44.67;39.65;;;;;;;;;;10134521;28;20045;-80
2023/12/30 01:04:45;;;;;;;48.38;39.22;;;;;;;;;;10118490;28;20132;-79
2023/12/30 01:09:38;;;;;;;44.40;38.92;;;;;;;;;;10126459;28;20484;-79
2023/12/30 01:14:30;;;;;;;45.08;38.28;;;;;;;;;;10141073;28;20394;-80
2023/12/30 01:19:24;;;;;;;47.78;40.20;;;;;;;;;;10135460;28;20033;-80
2023/12/30 01:24:16;;;;;;;48.67;37.70;;;;;;;;;;10129790;28;20041;-79
2023/12/30 01:29:08;;;;;;;44.55;39.75;;;;;;;;;;10104480;28;20049;-80
2023/12/30 01:34:00;;;;;;;47.97;40.25;;;;;;;;;;10107787;28;20755;-79
2023/12/30 01:38:52;;;;;;;46.33;39.22;;;;;;;;;;10106013;28;20536;-79
2023/12/30 01:43:44;;;;;;;51.85;41.88;;;;;;;;;;10106333;28;20409;-79
2023/12/30 01:48:36;;;;;;;44.13;37.25;;;;;;;;;;10105885;28;20041;-79
2023/12/30 01:53:32;;;;;;;49.00;39.17;;;;;;;;;;10088354;28;20195;-79
2023/12/30 01:58:25;;;;;;;49.47;40.92;;;;;;;;;;10121141;28;20040;-79
2023/12/30 02:03:17;;;;;;;55.40;41.50;;;;;;;;;;10104587;28;20049;-79
2023/12/30 02:08:09;;;;;;;50.70;42.20;;;;;;;;;;10105872;28;20037;-80
2023/12/30 02:13:02;;;;;;;47.20;40.03;;;;;;;;;;10109241;28;20100;-80
2023/12/30 02:17:56;;;;;;;50.50;42.35;;;;;;;;;;10124116;28;20371;-80
2023/12/30 02:22:49;;;;;;;53.38;42.13;;;;;;;;;;10129787;28;20045;-79
2023/12/30 02:27:44;;;;;;;48.33;38.13;;;;;;;;;;10133828;28;20136;-79
2023/12/30 02:32:36;;;;;;;45.40;39.78;;;;;;;;;;10113837;28;20049;-80
2023/12/30 02:37:28;;;;;;;47.53;39.50;;;;;;;;;;10112761;28;20115;-80
2023/12/30 02:42:20;;;;;;;49.83;39.53;;;;;;;;;;10112183;28;20521;-79
2023/12/30 02:47:12;;;;;;;50.97;41.97;;;;;;;;;;10110976;28;20036;-80
2023/12/30 02:52:04;;;;;;;48.40;42.08;;;;;;;;;;10112564;28;20067;-80
2023/12/30 02:56:56;;;;;;;47.30;41.22;;;;;;;;;;10110470;28;20036;-80
2023/12/30 03:01:48;;;;;;;49.17;41.78;;;;;;;;;;10112923;28;20097;-80
2023/12/30 03:06:40;;;;;;;54.15;43.08;;;;;;;;;;10128426;28;20045;-80
2023/12/30 03:11:32;;;;;;;48.30;39.90;;;;;;;;;;10112028;28;20069;-80
2023/12/30 03:16:25;;;;;;;62.38;46.45;;;;;;;;;;10111853;28;20068;-80
2023/12/30 03:21:17;;;;;;;60.83;45.80;;;;;;;;;;10112815;28;20045;-80
2023/12/30 03:26:12;;;;;;;55.72;45.40;;;;;;;;;;10110469;28;20480;-80
2023/12/30 03:31:05;;;;;;;50.17;42.55;;;;;;;;;;10111157;28;20080;-80
2023/12/30 03:35:57;;;;;;;60.08;44.85;;;;;;;;;;10110980;28;20140;-80
2023/12/30 03:40:49;;;;;;;50.47;42.95;;;;;;;;;;10110551;28;20033;-80
2023/12/30 03:45:41;;;;;;;52.55;42.85;;;;;;;;;;10110789;28;20041;-80
2023/12/30 03:50:33;;;;;;;49.42;42.00;;;;;;;;;;10111217;28;20045;-80
2023/12/30 03:55:24;;;;;;;51.63;44.78;;;;;;;;;;10127103;28;20080;-80
2023/12/30 04:00:16;;;;;;;49.13;42.67;;;;;;;;;;10110409;28;20120;-80
2023/12/30 04:05:08;;;;;;;53.75;43.55;;;;;;;;;;10125175;28;20048;-80
2023/12/30 04:10:00;;;;;;;54.67;44.28;;;;;;;;;;10111340;28;20227;-80
2023/12/30 04:14:52;;;;;;;48.25;40.50;;;;;;;;;;10125863;28;20045;-80
2023/12/30 04:19:44;;;;;;;48.40;42.47;;;;;;;;;;10110260;28;20040;-80
2023/12/30 04:24:37;;;;;;;47.13;41.72;;;;;;;;;;10108571;28;20127;-80
2023/12/30 04:29:29;;;;;;;47.55;39.45;;;;;;;;;;10109394;28;20041;-80
2023/12/30 04:34:22;;;;;;;48.42;39.72;;;;;;;;;;10123315;28;20335;-80
2023/12/30 04:39:14;;;;;;;47.70;40.22;;;;;;;;;;10108279;28;20423;-80
2023/12/30 04:44:06;;;;;;;49.35;41.92;;;;;;;;;;10108805;28;20401;-80
2023/12/30 04:49:02;;;;;;;61.03;41.97;;;;;;;;;;10106741;28;20052;-80
2023/12/30 04:53:56;;;;;;;50.08;41.97;;;;;;;;;;10107643;28;20049;-80
2023/12/30 04:58:48;;;;;;;47.85;38.08;;;;;;;;;;10090274;28;20087;-80
2023/12/30 05:03:41;;;;;;;48.35;41.08;;;;;;;;;;10123546;28;20040;-81
2023/12/30 05:08:33;;;;;;;47.70;38.88;;;;;;;;;;10107574;28;20079;-80
2023/12/30 05:13:25;;;;;;;47.45;40.10;;;;;;;;;;10107911;28;20040;-80
2023/12/30 05:18:17;;;;;;;52.78;40.40;;;;;;;;;;10107702;28;20095;-80
2023/12/30 05:23:09;;;;;;;50.13;43.00;;;;;;;;;;10106368;28;20772;-80
2023/12/30 05:28:02;;;;;;;49.22;37.53;;;;;;;;;;10107587;28;20380;-80
2023/12/30 05:32:53;;;;;;;47.03;41.33;;;;;;;;;;10106677;28;20064;-80
2023/12/30 05:37:45;;;;;;;48.05;40.22;;;;;;;;;;10108549;28;20056;-80
2023/12/30 05:42:37;;;;;;;48.33;40.42;;;;;;;;;;10105718;28;20533;-80
2023/12/30 05:47:29;;;;;;;43.08;36.95;;;;;;;;;;10106354;28;20680;-80
2023/12/30 05:52:21;;;;;;;51.03;41.75;;;;;;;;;;10105900;28;20056;-80
2023/12/30 05:57:13;;;;;;;50.28;39.75;;;;;;;;;;10106851;28;20052;-81
2023/12/30 06:02:05;;;;;;;41.95;37.35;;;;;;;;;;10105578;28;20045;-80
2023/12/30 06:06:57;;;;;;;47.85;37.15;;;;;;;;;;10123039;28;20375;-80
2023/12/30 06:11:49;;;;;;;47.67;38.30;;;;;;;;;;10105255;28;20049;-80
2023/12/30 06:16:41;;;;;;;47.08;37.90;;;;;;;;;;10106362;28;20069;-80
2023/12/30 06:21:33;;;;;;;51.45;38.83;;;;;;;;;;10105354;28;20446;-80
2023/12/30 06:26:25;;;;;;;44.60;36.72;;;;;;;;;;10105265;28;20063;-80
2023/12/30 06:31:17;;;;;;;46.05;37.78;;;;;;;;;;10106633;28;20131;-80
2023/12/30 06:36:11;;;;;;;47.35;39.55;;;;;;;;;;10105322;28;20049;-80
2023/12/30 06:41:06;;;;;;;51.60;41.58;;;;;;;;;;10104782;28;20049;-79
2023/12/30 06:46:03;;;;;;;51.42;42.05;;;;;;;;;;10104229;28;20052;-80
2023/12/30 06:50:56;;;;;;;47.85;40.65;;;;;;;;;;10106212;28;20110;-80
2023/12/30 06:55:48;;;;;;;49.95;40.15;;;;;;;;;;10109815;28;20056;-80
2023/12/30 07:00:40;;;;;;;53.10;42.40;;;;;;;;;;10140321;28;20079;-80
2023/12/30 07:05:35;;;;;;;53.30;40.92;;;;;;;;;;10136655;28;20048;-80
2023/12/30 07:10:28;;;;;;;48.92;37.47;;;;;;;;;;10127025;28;20041;-79
2023/12/30 07:15:20;;;;;;;53.90;38.95;;;;;;;;;;10139955;28;20094;-80
2023/12/30 07:20:12;;;;;;;47.08;37.15;;;;;;;;;;10126055;28;20045;-80
2023/12/30 07:25:04;;;;;;;52.72;37.33;;;;;;;;;;10125898;28;20460;-80
2023/12/30 07:29:57;;;;;;;44.00;36.20;;;;;;;;;;10142408;28;20057;-81
2023/12/30 07:34:49;;;;;;;47.85;33.85;;;;;;;;;;10122909;28;20045;-80
2023/12/30 07:39:41;;;;;;;49.15;34.45;;;;;;;;;;10122180;28;20040;-80
2023/12/30 07:44:37;;;;;;;44.95;34.50;;;;;;;;;;10124416;28;20045;-81
2023/12/30 07:49:30;;;;;;;48.85;36.10;;;;;;;;;;10118486;28;20045;-81
2023/12/30 07:54:22;;;;;;;47.90;34.25;;;;;;;;;;10125765;28;20067;-81
2023/12/30 07:59:13;;;;;;;46.70;34.35;;;;;;;;;;10146923;28;20047;-81
2023/12/30 08:04:05;;;;;;;47.30;37.50;;;;;;;;;;10131887;28;20368;-81
2023/12/30 08:08:57;;;;;;;51.22;39.42;;;;;;;;;;10115104;28;20080;-80
2023/12/30 08:13:49;;;;;;;48.42;38.30;;;;;;;;;;10121469;28;20045;-78
2023/12/30 08:18:41;;;;;;;50.03;41.03;;;;;;;;;;10135749;28;20040;-79
2023/12/30 08:23:33;;;;;;;51.25;39.67;;;;;;;;;;10139865;28;20435;-77
2023/12/30 08:28:25;;;;;;;44.28;36.70;;;;;;;;;;10120784;28;20045;-77
2023/12/30 08:33:17;;;;;;;45.63;36.45;;;;;;;;;;10125133;28;20420;-78
2023/12/30 08:38:08;;;;;;;70.60;55.17;;;;;;;;;;10129127;28;20599;-77
2023/12/30 08:43:00;;;;;;;46.92;35.40;;;;;;;;;;10135411;28;20045;-76
2023/12/30 08:47:52;;;;;;;44.72;33.60;;;;;;;;;;10123421;28;20045;-77
2023/12/30 08:52:44;;;;;;;47.75;36.45;;;;;;;;;;10126103;28;20075;-76
2023/12/30 08:57:39;;;;;;;45.15;36.08;;;;;;;;;;10145531;28;20052;-76
2023/12/30 09:02:31;;;;;;;43.50;35.38;;;;;;;;;;10145306;28;20040;-76
2023/12/30 09:07:23;;;;;;;44.53;35.67;;;;;;;;;;10132962;28;20233;-76
2023/12/30 09:12:15;;;;;;;47.13;36.25;;;;;;;;;;10127656;28;20051;-77
2023/12/30 09:17:07;;;;;;;45.70;36.50;;;;;;;;;;10125115;28;20075;-78
2023/12/30 09:21:59;;;;;;;41.20;32.90;;;;;;;;;;10125304;28;20048;-78
2023/12/30 09:26:51;;;;;;;48.60;35.08;;;;;;;;;;10117992;28;20068;-77
2023/12/30 09:31:43;;;;;;;47.35;37.03;;;;;;;;;;10123571;28;20090;-80
2023/12/30 09:36:35;;;;;;;55.45;41.40;;;;;;;;;;10143287;28;20047;-77
2023/12/30 09:41:30;;;;;;;57.90;44.97;;;;;;;;;;10123715;28;20124;-77
2023/12/30 09:46:23;;;;;;;57.30;42.83;;;;;;;;;;10126647;28;20048;-77
2023/12/30 09:51:15;;;;;;;50.08;40.40;;;;;;;;;;10120483;28;20040;-77
2023/12/30 09:56:07;;;;;;;55.60;40.88;;;;;;;;;;10126506;28;20069;-77
2023/12/30 10:00:59;;;;;;;56.90;40.40;;;;;;;;;;10129786;28;20428;-78
2023/12/30 10:05:54;;;;;;;66.35;49.33;;;;;;;;;;10117329;28;20071;-78
2023/12/30 10:10:49;;;;;;;61.05;46.10;;;;;;;;;;10133547;28;20481;-77
2023/12/30 10:15:42;;;;;;;46.22;37.42;;;;;;;;;;10140842;28;20045;-77
2023/12/30 10:20:40;;;;;;;43.15;31.85;;;;;;;;;;10129593;28;20045;-77
2023/12/30 10:25:33;;;;;;;39.97;30.52;;;;;;;;;;10130296;28;20054;-77
2023/12/30 10:30:25;;;;;;;43.40;34.25;;;;;;;;;;10141718;28;20052;-78
2023/12/30 10:35:17;;;;;;;42.20;31.92;;;;;;;;;;10135644;28;20051;-77
2023/12/30 10:40:11;;;;;;;43.67;33.50;;;;;;;;;;10126129;28;20041;-78
2023/12/30 10:45:04;;;;;;;49.78;35.55;;;;;;;;;;10131533;28;20048;-77
2023/12/30 10:50:04;;;;;;;52.33;37.53;;;;;;;;;;10111819;28;20059;-77
2023/12/30 10:55:08;;;;;;;42.72;33.15;;;;;;;;;;10114307;28;20060;-77
2023/12/30 11:00:06;;;;;;;42.13;31.50;;;;;;;;;;10146104;28;20045;-77
2023/12/30 11:05:01;;;;;;;41.40;33.37;;;;;;;;;;10111218;28;20045;-79
2023/12/30 11:09:53;;;;;;;47.28;35.70;;;;;;;;;;10124197;28;20086;-77
2023/12/30 11:14:48;;;;;;;45.20;34.83;;;;;;;;;;10126376;28;20076;-77
2023/12/30 11:19:40;;;;;;;43.03;34.42;;;;;;;;;;10146397;28;20045;-77
2023/12/30 11:24:33;;;;;;;47.35;35.58;;;;;;;;;;10144075;28;20086;-77
2023/12/30 11:29:28;;;;;;;49.75;36.83;;;;;;;;;;10144806;28;20037;-78
2023/12/30 11:34:22;;;;;;;47.47;36.92;;;;;;;;;;10144025;28;20075;-76
2023/12/30 11:39:27;;;;;;;56.25;35.40;;;;;;;;;;10136012;28;20139;-75
2023/12/30 11:44:19;;;;;;;48.47;36.33;;;;;;;;;;10142781;28;20088;-78
2023/12/30 11:49:26;;;;;;;51.13;37.30;;;;;;;;;;10137552;28;20119;-75
2023/12/30 11:54:18;;;;;;;47.10;36.58;;;;;;;;;;10121152;28;20490;-76
2023/12/30 11:59:10;;;;;;;41.53;33.05;;;;;;;;;;10136156;28;20045;-76
2023/12/30 12:04:02;;;;;;;43.95;36.58;;;;;;;;;;10140579;28;20056;-77
2023/12/30 12:08:54;;;;;;;44.88;35.65;;;;;;;;;;10138907;28;20067;-77
2023/12/30 12:13:46;;;;;;;39.45;33.70;;;;;;;;;;10145585;28;20323;-77
2023/12/30 12:18:40;;;;;;;51.22;35.88;;;;;;;;;;10119478;28;20060;-78
2023/12/30 12:23:32;;;;;;;36.50;30.45;;;;;;;;;;10144886;28;20476;-78
2023/12/30 12:28:24;;;;;;;37.03;30.88;;;;;;;;;;10137506;28;20434;-78
2023/12/30 12:33:18;;;;;;;40.45;30.40;;;;;;;;;;10131597;28;20041;-78
2023/12/30 12:38:10;;;;;;;37.88;30.67;;;;;;;;;;10141999;28;20080;-78
2023/12/30 12:43:02;;;;;;;40.50;33.58;;;;;;;;;;10124184;28;20444;-78
2023/12/30 12:47:55;;;;;;;47.38;34.15;;;;;;;;;;10141839;28;20475;-78
2023/12/30 12:52:47;;;;;;;42.20;32.85;;;;;;;;;;10131025;28;20073;-78
2023/12/30 12:57:39;;;;;;;41.10;33.08;;;;;;;;;;10141260;28;20072;-78
2023/12/30 13:02:32;;;;;;;40.97;31.52;;;;;;;;;;10140218;28;20080;-78
2023/12/30 13:07:24;;;;;;;43.42;30.98;;;;;;;;;;10119188;28;20116;-78
2023/12/30 13:12:16;;;;;;;46.90;34.25;;;;;;;;;;10140845;28;20173;-76
2023/12/30 13:17:12;;;;;;;48.25;36.40;;;;;;;;;;10145997;28;20045;-77
2023/12/30 13:22:04;;;;;;;45.42;33.22;;;;;;;;;;10117006;28;20044;-79
2023/12/30 13:26:56;;;;;;;46.80;33.15;;;;;;;;;;10130055;28;20459;-79
2023/12/30 13:31:48;;;;;;;45.17;33.72;;;;;;;;;;10143023;28;20048;-78
2023/12/30 13:36:42;;;;;;;49.95;36.38;;;;;;;;;;10106945;28;20201;-81
2023/12/30 13:41:35;;;;;;;46.92;34.95;;;;;;;;;;10124237;28;20064;-77
2023/12/30 13:51:42;;;;;;;45.10;34.60;;;;;;;;;;10139380;28;20131;-77
2023/12/30 13:56:36;;;;;;;41.42;30.58;;;;;;;;;;10121472;28;20436;-79
2023/12/30 14:01:27;;;;;;;42.85;30.08;;;;;;;;;;10140468;28;20116;-77
2023/12/30 14:06:22;;;;;;;47.67;33.42;;;;;;;;;;10130704;28;20055;-76
2023/12/30 14:11:52;;;;;;;41.80;32.53;;;;;;;;;;10132463;28;20106;-76
2023/12/30 14:16:32;;;;;;;48.83;35.67;;;;;;;;;;10130158;28;20060;-77
2023/12/30 14:21:24;;;;;;;48.83;34.08;;;;;;;;;;10136925;28;20481;-77
2023/12/30 14:26:17;;;;;;;46.60;37.03;;;;;;;;;;10142324;28;20496;-77
2023/12/30 14:31:11;;;;;;;49.85;36.13;;;;;;;;;;10141337;28;20057;-76
2023/12/30 14:36:03;;;;;;;52.63;38.75;;;;;;;;;;10143654;28;20060;-76
2023/12/30 14:40:55;;;;;;;48.00;33.10;;;;;;;;;;10124592;28;20048;-81
2023/12/30 14:45:47;;;;;;;47.15;35.85;;;;;;;;;;10134745;28;20052;-75
2023/12/30 14:50:39;;;;;;;45.38;33.00;;;;;;;;;;10119809;28;20045;-75
2023/12/30 14:55:31;;;;;;;44.83;33.28;;;;;;;;;;10128279;28;20131;-75
2023/12/30 15:00:24;;;;;;;44.55;32.15;;;;;;;;;;10133916;28;20143;-76
2023/12/30 15:05:16;;;;;;;44.83;32.80;;;;;;;;;;10120970;28;20055;-76
2023/12/30 15:10:09;;;;;;;41.05;30.75;;;;;;;;;;10123361;28;20048;-75
2023/12/30 15:15:02;;;;;;;40.60;31.02;;;;;;;;;;10157360;28;20328;-75
2023/12/30 15:19:54;;;;;;;48.47;33.42;;;;;;;;;;10117521;28;20033;-75
2023/12/30 15:24:49;;;;;;;42.50;30.52;;;;;;;;;;10122493;28;20053;-75
2023/12/30 15:29:41;;;;;;;42.78;33.20;;;;;;;;;;10143400;28;20128;-74
2023/12/30 15:34:34;;;;;;;44.28;30.65;;;;;;;;;;10137404;28;20122;-76
2023/12/30 15:39:26;;;;;;;40.28;31.25;;;;;;;;;;10132340;28;20124;-76
2023/12/30 15:44:18;;;;;;;46.10;33.80;;;;;;;;;;10137705;28;20041;-77
2023/12/30 15:49:09;;;;;;;40.58;31.80;;;;;;;;;;10133320;28;20375;-77
2023/12/30 15:54:04;;;;;;;39.05;30.92;;;;;;;;;;10143272;28;20064;-74
2023/12/30 15:58:56;;;;;;;51.88;38.17;;;;;;;;;;10127281;28;20048;-74
2023/12/30 16:03:47;;;;;;;54.33;38.25;;;;;;;;;;10144271;28;20151;-71
2023/12/30 16:08:40;;;;;;;51.72;37.75;;;;;;;;;;10126383;28;20374;-73
2023/12/30 16:13:32;;;;;;;56.50;39.95;;;;;;;;;;10148720;28;20075;-71
2023/12/30 16:18:24;;;;;;;67.47;47.20;;;;;;;;;;10131280;28;20099;-71
2023/12/30 16:23:16;;;;;;;76.88;46.45;;;;;;;;;;10139818;28;20054;-71
2023/12/30 16:28:08;;;;;;;67.20;44.40;;;;;;;;;;10143436;28;20037;-71
2023/12/30 16:33:00;;;;;;;59.42;40.42;;;;;;;;;;10137595;28;20068;-71
2023/12/30 16:37:53;;;;;;;62.58;47.65;;;;;;;;;;10131329;28;20037;-71
2023/12/30 16:42:45;;;;;;;64.10;46.67;;;;;;;;;;10141277;28;20106;-71
2023/12/30 16:47:40;;;;;;;63.42;46.63;;;;;;;;;;10145503;28;20119;-71
2023/12/30 16:52:33;;;;;;;59.78;41.08;;;;;;;;;;10147695;28;20037;-71
2023/12/30 16:57:25;;;;;;;49.20;37.50;;;;;;;;;;10147679;28;20052;-71
2023/12/30 17:02:16;;;;;;;54.30;41.28;;;;;;;;;;10146552;28;20490;-72
2023/12/30 17:07:08;;;;;;;60.55;44.72;;;;;;;;;;10143420;28;20400;-72
2023/12/30 17:12:00;;;;;;;52.33;35.90;;;;;;;;;;10130308;28;20053;-72
2023/12/30 17:16:52;;;;;;;69.82;48.25;;;;;;;;;;10108568;28;20332;-72
2023/12/30 17:21:44;;;;;;;57.83;41.58;;;;;;;;;;10108766;28;20045;-73
2023/12/30 17:26:36;;;;;;;48.22;36.83;;;;;;;;;;10111572;28;20048;-74
2023/12/30 17:31:28;;;;;;;54.38;38.03;;;;;;;;;;10109317;28;20044;-73
2023/12/30 17:36:20;;;;;;;79.82;57.55;;;;;;;;;;10108840;28;20056;-78
2023/12/30 17:41:12;;;;;;;59.38;43.33;;;;;;;;;;10115437;28;20048;-72
2023/12/30 17:46:04;;;;;;;50.97;40.67;;;;;;;;;;10109007;28;20048;-72
2023/12/30 17:50:57;;;;;;;57.28;44.47;;;;;;;;;;10115475;28;20048;-74
2023/12/30 17:55:49;;;;;;;49.38;40.10;;;;;;;;;;10108170;28;20052;-74
2023/12/30 18:00:42;;;;;;;51.20;41.05;;;;;;;;;;10115125;28;20128;-74
2023/12/30 18:05:36;;;;;;;47.33;39.10;;;;;;;;;;10135054;28;20056;-74
2023/12/30 18:10:29;;;;;;;84.68;66.38;;;;;;;;;;10141360;28;20044;-74
2023/12/30 18:15:21;;;;;;;64.88;43.90;;;;;;;;;;10144178;28;20068;-74
2023/12/30 18:20:14;;;;;;;61.97;44.33;;;;;;;;;;10135186;28;20047;-74
2023/12/30 18:25:09;;;;;;;67.50;44.97;;;;;;;;;;10141699;28;20049;-74
2023/12/30 18:30:01;;;;;;;64.30;48.47;;;;;;;;;;10143919;28;20049;-74
2023/12/30 18:34:53;;;;;;;79.53;62.85;;;;;;;;;;10141288;28;20456;-74
2023/12/30 18:39:45;;;;;;;62.42;44.75;;;;;;;;;;10124700;28;20102;-74
2023/12/30 18:44:37;;;;;;;62.75;46.88;;;;;;;;;;10134984;28;20324;-74
2023/12/30 18:49:29;;;;;;;67.72;46.50;;;;;;;;;;10121100;28;20041;-74
2023/12/30 18:54:21;;;;;;;64.07;47.22;;;;;;;;;;10140431;28;20045;-73
2023/12/30 18:59:13;;;;;;;60.72;46.67;;;;;;;;;;10141534;28;20508;-74
2023/12/30 19:04:05;;;;;;;76.35;54.45;;;;;;;;;;10135916;28;20105;-74
2023/12/30 19:08:57;;;;;;;68.30;50.80;;;;;;;;;;10113082;28;20063;-74
2023/12/30 19:13:48;;;;;;;73.32;55.67;;;;;;;;;;10134153;28;20051;-74
2023/12/30 19:18:40;;;;;;;67.35;50.65;;;;;;;;;;10125970;28;20123;-74
2023/12/30 19:23:34;;;;;;;67.18;53.63;;;;;;;;;;10145265;28;20150;-74
2023/12/30 19:28:26;;;;;;;70.28;54.03;;;;;;;;;;10148498;28;20351;-75
2023/12/30 19:33:18;;;;;;;76.70;61.58;;;;;;;;;;10136804;28;20040;-75
2023/12/30 19:38:10;;;;;;;67.07;54.45;;;;;;;;;;10148691;28;20040;-74
2023/12/30 19:43:03;;;;;;;66.57;50.22;;;;;;;;;;10136094;28;20087;-74
2023/12/30 19:47:57;;;;;;;61.50;50.60;;;;;;;;;;10137599;28;20372;-75
2023/12/30 19:52:49;;;;;;;66.15;49.35;;;;;;;;;;10147705;28;20472;-74
2023/12/30 19:57:41;;;;;;;71.10;52.05;;;;;;;;;;10139315;28;20095;-74
2023/12/30 20:02:33;;;;;;;58.25;47.85;;;;;;;;;;10148172;28;20106;-74
2023/12/30 20:07:25;;;;;;;64.85;50.67;;;;;;;;;;10145779;28;20055;-74
2023/12/30 20:12:17;;;;;;;70.13;52.65;;;;;;;;;;10149784;28;20383;-72
2023/12/30 20:17:09;;;;;;;58.58;47.05;;;;;;;;;;10145722;28;20127;-77
2023/12/30 20:22:01;;;;;;;61.90;49.00;;;;;;;;;;10143802;28;20041;-77
2023/12/30 20:26:56;;;;;;;58.42;49.05;;;;;;;;;;10116925;28;20040;-78
2023/12/30 20:31:47;;;;;;;65.45;52.33;;;;;;;;;;10148163;28;20391;-77
2023/12/30 20:36:39;;;;;;;65.43;55.35;;;;;;;;;;10134665;28;20102;-77
2023/12/30 20:41:31;;;;;;;65.70;52.78;;;;;;;;;;10129470;28;20032;-77
2023/12/30 20:46:23;;;;;;;58.15;48.35;;;;;;;;;;10130791;28;20048;-78
2023/12/30 20:51:15;;;;;;;69.80;52.83;;;;;;;;;;10113040;28;20068;-78
2023/12/30 20:56:07;;;;;;;63.58;53.03;;;;;;;;;;10117503;28;20320;-78
2023/12/30 21:00:59;;;;;;;67.60;51.65;;;;;;;;;;10135771;28;20044;-77
2023/12/30 21:05:51;;;;;;;62.72;50.65;;;;;;;;;;10124021;28;20056;-77
2023/12/30 21:10:43;;;;;;;59.38;52.15;;;;;;;;;;10129204;28;20044;-77
2023/12/30 21:15:35;;;;;;;61.13;46.75;;;;;;;;;;10111715;28;20041;-77
2023/12/30 21:20:27;;;;;;;57.38;48.65;;;;;;;;;;10144610;28;20467;-78
2023/12/30 21:25:19;;;;;;;62.17;48.33;;;;;;;;;;10144713;28;20041;-77
2023/12/30 21:30:18;;;;;;;59.30;49.35;;;;;;;;;;10120775;28;20448;-78
2023/12/30 21:35:11;;;;;;;70.72;54.42;;;;;;;;;;10121511;28;20057;-77
2023/12/30 21:40:03;;;;;;;59.67;49.55;;;;;;;;;;10130784;28;20074;-77
2023/12/30 21:44:55;;;;;;;62.80;51.13;;;;;;;;;;10131737;28;20049;-77
2023/12/30 21:49:47;;;;;;;78.55;68.13;;;;;;;;;;10114728;28;20041;-77
2023/12/30 21:54:39;;;;;;;73.05;60.63;;;;;;;;;;10134158;28;20041;-77
2023/12/30 21:59:31;;;;;;;81.65;66.57;;;;;;;;;;10140812;28;20040;-77
2023/12/30 22:04:22;;;;;;;79.72;65.22;;;;;;;;;;10123057;28;20048;-77
2023/12/30 22:09:14;;;;;;;78.07;60.53;;;;;;;;;;10130852;28;20040;-78
2023/12/30 22:14:06;;;;;;;74.72;62.08;;;;;;;;;;10144700;28;20072;-78
2023/12/30 22:18:58;;;;;;;67.63;56.42;;;;;;;;;;10117804;28;20041;-77
2023/12/30 22:23:50;;;;;;;60.70;49.15;;;;;;;;;;10122433;28;20043;-77
2023/12/30 22:28:41;;;;;;;60.08;51.42;;;;;;;;;;10140060;28;20049;-77
2023/12/30 22:33:34;;;;;;;68.47;57.28;;;;;;;;;;10136976;28;20048;-77
2023/12/30 22:38:26;;;;;;;68.65;55.13;;;;;;;;;;10124523;28;20208;-77
2023/12/30 22:43:18;;;;;;;75.40;58.40;;;;;;;;;;10141331;28;20512;-77
2023/12/30 22:48:10;;;;;;;66.07;53.47;;;;;;;;;;10144027;28;20365;-77
2023/12/30 22:53:03;;;;;;;71.00;55.17;;;;;;;;;;10145310;28;20051;-77
2023/12/30 22:57:55;;;;;;;68.22;53.15;;;;;;;;;;10124344;28;20450;-77
2023/12/30 23:02:47;;;;;;;84.35;63.72;;;;;;;;;;10137803;28;20135;-77
2023/12/30 23:07:39;;;;;;;77.57;58.88;;;;;;;;;;10146409;28;20045;-77
2023/12/30 23:12:31;;;;;;;70.40;57.78;;;;;;;;;;10150670;28;20128;-77
2023/12/30 23:17:24;;;;;;;65.22;52.40;;;;;;;;;;10145403;28;20120;-77
2023/12/30 23:22:16;;;;;;;80.80;61.15;;;;;;;;;;10134123;28;20080;-77
2023/12/30 23:27:08;;;;;;;79.85;59.58;;;;;;;;;;10150448;28;20067;-77
2023/12/30 23:31:59;;;;;;;78.35;59.03;;;;;;;;;;10150730;28;20079;-77
2023/12/30 23:36:51;;;;;;;72.22;56.35;;;;;;;;;;10136892;28;20510;-77
2023/12/30 23:41:43;;;;;;;82.63;56.38;;;;;;;;;;10131941;28;20068;-77
2023/12/30 23:46:35;;;;;;;77.38;58.10;;;;;;;;;;10134594;28;20051;-77
2023/12/30 23:51:27;;;;;;;67.68;53.42;;;;;;;;;;10131076;28;20051;-77
2023/12/30 23:56:19;;;;;;;74.63;56.25;;;;;;;;;;10132948;28;20037;-78
